createdAt,value
2019-05-13T00:00:19.574Z,8.99
2019-05-13T00:01:19.480Z,9.01
2019-05-13T00:02:19.389Z,9.02
2019-05-13T00:03:19.324Z,9.11
2019-05-13T00:04:19.225Z,8.96
2019-05-13T00:05:19.142Z,9.02
2019-05-13T00:06:19.061Z,8.89
2019-05-13T00:07:18.975Z,8.86
2019-05-13T00:08:21.628Z,8.89
2019-05-13T00:09:18.812Z,8.89
2019-05-13T00:10:18.725Z,8.92
2019-05-13T00:11:18.651Z,8.95
2019-05-13T00:12:18.576Z,8.84
2019-05-13T00:13:18.487Z,8.84
2019-05-13T00:14:18.407Z,8.89
2019-05-13T00:15:18.313Z,8.83
2019-05-13T00:16:18.237Z,8.76
2019-05-13T00:17:18.151Z,8.68
2019-05-13T00:18:18.075Z,8.70
2019-05-13T00:19:17.988Z,8.76
2019-05-13T00:20:17.905Z,8.71
2019-05-13T00:21:17.825Z,8.58
2019-05-13T00:22:17.738Z,8.63
2019-05-13T00:23:17.652Z,8.73
2019-05-13T00:24:17.577Z,8.76
2019-05-13T00:25:17.488Z,8.70
2019-05-13T00:26:17.409Z,8.58
2019-05-13T00:27:17.329Z,8.63
2019-05-13T00:28:17.240Z,8.56
2019-05-13T00:29:17.178Z,8.55
2019-05-13T00:30:17.078Z,8.58
2019-05-13T00:31:16.989Z,8.50
2019-05-13T00:32:16.915Z,8.56
2019-05-13T00:33:16.827Z,8.52
2019-05-13T00:34:16.740Z,8.43
2019-05-13T00:35:16.667Z,8.38
2019-05-13T00:36:16.578Z,8.34
2019-05-13T00:37:16.493Z,8.45
2019-05-13T00:38:16.415Z,8.37
2019-05-13T00:39:16.327Z,8.43
2019-05-13T00:40:16.254Z,8.37
2019-05-13T00:41:16.178Z,8.45
2019-05-13T00:42:16.079Z,8.41
2019-05-13T00:43:16.012Z,8.44
2019-05-13T00:44:15.917Z,8.47
2019-05-13T00:45:15.829Z,8.36
2019-05-13T00:46:15.754Z,8.41
2019-05-13T00:47:15.679Z,8.38
2019-05-13T00:48:15.591Z,8.40
2019-05-13T00:49:15.508Z,8.36
2019-05-13T00:50:15.417Z,8.36
2019-05-13T00:51:15.342Z,8.26
2019-05-13T00:52:15.258Z,8.25
2019-05-13T00:53:15.180Z,8.34
2019-05-13T00:54:15.092Z,8.34
2019-05-13T00:55:15.051Z,8.30
2019-05-13T00:56:14.919Z,8.36
2019-05-13T00:57:14.842Z,8.18
2019-05-13T00:58:14.760Z,8.16
2019-05-13T00:59:14.682Z,8.19
2019-05-13T01:00:14.596Z,8.25
2019-05-13T01:01:14.510Z,8.30
2019-05-13T01:02:14.434Z,8.28
2019-05-13T01:03:14.420Z,8.29
2019-05-13T01:04:14.463Z,8.23
2019-05-13T01:05:14.626Z,8.22
2019-05-13T01:06:14.100Z,8.18
2019-05-13T01:07:25.149Z,8.19
2019-05-13T01:08:14.611Z,8.20
2019-05-13T01:09:14.418Z,8.16
2019-05-13T01:10:13.771Z,8.12
2019-05-13T01:11:13.684Z,8.12
2019-05-13T01:12:13.609Z,8.10
2019-05-13T01:13:13.734Z,8.11
2019-05-13T01:14:14.398Z,8.18
2019-05-13T01:15:13.635Z,8.15
2019-05-13T01:16:14.041Z,8.22
2019-05-13T01:17:14.148Z,8.11
2019-05-13T01:18:14.322Z,8.12
2019-05-13T01:19:14.315Z,8.04
2019-05-13T01:20:14.445Z,8.12
2019-05-13T01:21:13.304Z,8.04
2019-05-13T01:22:13.499Z,8.04
2019-05-13T01:23:14.133Z,8.15
2019-05-13T01:24:14.448Z,8.04
2019-05-13T01:25:14.473Z,7.95
2019-05-13T01:26:14.179Z,8.01
2019-05-13T01:27:13.982Z,8.04
2019-05-13T01:28:13.487Z,8.07
2019-05-13T01:29:13.511Z,8.00
2019-05-13T01:30:13.342Z,8.00
2019-05-13T01:31:13.237Z,8.00
2019-05-13T01:32:14.279Z,7.93
2019-05-13T01:33:14.198Z,8.05
2019-05-13T01:34:14.083Z,8.04
2019-05-13T01:35:11.696Z,7.97
2019-05-13T01:36:13.412Z,7.97
2019-05-13T01:37:13.152Z,7.89
2019-05-13T01:38:13.334Z,7.85
2019-05-13T01:39:13.711Z,7.90
2019-05-13T01:40:13.442Z,7.79
2019-05-13T01:41:13.480Z,7.95
2019-05-13T01:42:11.113Z,7.79
2019-05-13T01:43:11.024Z,7.82
2019-05-13T01:44:10.953Z,7.86
2019-05-13T01:45:10.862Z,7.74
2019-05-13T01:46:10.774Z,7.79
2019-05-13T01:47:10.688Z,7.74
2019-05-13T01:48:10.614Z,7.61
2019-05-13T01:49:10.533Z,7.75
2019-05-13T01:50:10.450Z,7.67
2019-05-13T01:51:10.364Z,7.64
2019-05-13T01:52:10.292Z,7.64
2019-05-13T01:53:10.200Z,7.68
2019-05-13T01:54:10.114Z,7.61
2019-05-13T01:55:10.025Z,7.61
2019-05-13T01:56:09.951Z,7.61
2019-05-13T01:57:09.863Z,7.60
2019-05-13T01:58:09.777Z,7.50
2019-05-13T01:59:09.700Z,7.50
2019-05-13T02:00:09.615Z,7.52
2019-05-13T02:01:09.527Z,7.53
2019-05-13T02:02:09.451Z,7.43
2019-05-13T02:03:09.365Z,7.46
2019-05-13T02:04:09.276Z,7.46
2019-05-13T02:05:09.202Z,7.35
2019-05-13T02:06:09.115Z,7.32
2019-05-13T02:07:09.028Z,7.32
2019-05-13T02:08:08.951Z,7.32
2019-05-13T02:09:08.865Z,7.30
2019-05-13T02:10:08.777Z,7.32
2019-05-13T02:11:08.701Z,7.32
2019-05-13T02:12:08.615Z,7.32
2019-05-13T02:13:08.527Z,7.23
2019-05-13T02:14:08.455Z,7.28
2019-05-13T02:15:08.365Z,7.27
2019-05-13T02:16:08.279Z,7.25
2019-05-13T02:17:08.203Z,7.15
2019-05-13T02:18:08.116Z,7.12
2019-05-13T02:19:08.030Z,7.16
2019-05-13T02:20:07.952Z,7.13
2019-05-13T02:21:07.866Z,7.15
2019-05-13T02:22:07.778Z,7.15
2019-05-13T02:23:07.704Z,7.12
2019-05-13T02:24:07.616Z,6.97
2019-05-13T02:25:07.540Z,7.05
2019-05-13T02:26:07.452Z,7.02
2019-05-13T02:27:07.371Z,7.05
2019-05-13T02:28:10.158Z,6.97
2019-05-13T02:29:07.203Z,6.98
2019-05-13T02:30:07.117Z,6.99
2019-05-13T02:31:07.043Z,6.85
2019-05-13T02:32:06.961Z,6.89
2019-05-13T02:33:06.868Z,6.91
2019-05-13T02:34:06.779Z,6.92
2019-05-13T02:35:06.729Z,6.99
2019-05-13T02:36:06.618Z,6.89
2019-05-13T02:37:06.530Z,6.89
2019-05-13T02:38:19.785Z,6.91
2019-05-13T02:39:06.371Z,6.92
2019-05-13T02:40:06.280Z,6.88
2019-05-13T02:41:06.194Z,6.89
2019-05-13T02:42:06.119Z,6.91
2019-05-13T02:43:06.033Z,6.91
2019-05-13T02:44:05.944Z,6.79
2019-05-13T02:45:05.871Z,6.84
2019-05-13T02:46:05.781Z,6.85
2019-05-13T02:47:05.693Z,6.81
2019-05-13T02:48:05.622Z,6.89
2019-05-13T02:49:05.534Z,6.88
2019-05-13T02:50:05.558Z,6.85
2019-05-13T02:51:05.382Z,6.84
2019-05-13T02:52:05.281Z,6.79
2019-05-13T02:53:05.198Z,6.85
2019-05-13T02:54:05.130Z,6.80
2019-05-13T02:55:05.032Z,6.80
2019-05-13T02:56:04.962Z,6.80
2019-05-13T02:57:04.869Z,6.81
2019-05-13T02:58:04.782Z,6.76
2019-05-13T02:59:04.702Z,6.79
2019-05-13T03:00:04.657Z,6.81
2019-05-13T03:01:04.550Z,6.77
2019-05-13T03:02:04.537Z,6.76
2019-05-13T03:03:04.360Z,6.74
2019-05-13T03:04:04.285Z,6.74
2019-05-13T03:05:04.197Z,6.79
2019-05-13T03:06:04.121Z,6.70
2019-05-13T03:07:04.039Z,6.59
2019-05-13T03:08:03.964Z,6.56
2019-05-13T03:09:03.858Z,6.64
2019-05-13T03:10:04.430Z,6.61
2019-05-13T03:11:03.697Z,6.54
2019-05-13T03:12:04.268Z,6.58
2019-05-13T03:13:03.810Z,6.64
2019-05-13T03:14:03.857Z,6.55
2019-05-13T03:15:03.359Z,6.54
2019-05-13T03:16:03.373Z,6.41
2019-05-13T03:17:03.539Z,6.51
2019-05-13T03:18:03.550Z,6.41
2019-05-13T03:19:03.146Z,6.48
2019-05-13T03:20:04.077Z,6.41
2019-05-13T03:21:03.397Z,6.48
2019-05-13T03:22:03.249Z,6.46
2019-05-13T03:23:03.248Z,6.44
2019-05-13T03:24:03.440Z,6.40
2019-05-13T03:25:03.370Z,6.40
2019-05-13T03:26:03.109Z,6.48
2019-05-13T03:27:02.728Z,6.40
2019-05-13T03:28:03.118Z,6.51
2019-05-13T03:29:02.777Z,6.44
2019-05-13T03:30:04.255Z,6.54
2019-05-13T03:31:06.667Z,6.52
2019-05-13T03:32:06.338Z,6.43
2019-05-13T03:33:09.744Z,6.55
2019-05-13T03:34:06.349Z,6.56
2019-05-13T03:35:07.148Z,6.44
2019-05-13T03:36:06.943Z,6.44
2019-05-13T03:37:06.447Z,6.40
2019-05-13T03:38:03.344Z,6.33
2019-05-13T03:39:06.939Z,6.31
2019-05-13T03:40:03.321Z,6.46
2019-05-13T03:41:03.237Z,6.46
2019-05-13T03:42:02.921Z,6.40
2019-05-13T03:43:02.832Z,6.36
2019-05-13T03:44:02.573Z,6.37
2019-05-13T03:45:02.958Z,6.27
2019-05-13T03:46:03.373Z,6.31
2019-05-13T03:47:03.444Z,6.38
2019-05-13T03:48:03.763Z,6.33
2019-05-13T03:49:02.393Z,6.28
2019-05-13T03:50:03.557Z,6.22
2019-05-13T03:51:02.735Z,6.25
2019-05-13T03:52:03.035Z,6.25
2019-05-13T03:53:03.081Z,6.25
2019-05-13T03:54:03.166Z,6.19
2019-05-13T03:55:02.878Z,6.18
2019-05-13T03:56:02.431Z,6.27
2019-05-13T03:57:03.163Z,6.28
2019-05-13T03:58:02.562Z,6.27
2019-05-13T03:59:02.486Z,6.22
2019-05-13T04:00:03.225Z,6.30
2019-05-13T04:01:02.486Z,6.38
2019-05-13T04:02:02.301Z,6.36
2019-05-13T04:03:02.961Z,6.21
2019-05-13T04:03:59.262Z,6.28
2019-05-13T04:05:03.547Z,6.46
2019-05-13T04:06:03.044Z,6.41
2019-05-13T04:07:02.272Z,6.43
2019-05-13T04:07:58.938Z,6.34
2019-05-13T04:09:17.208Z,6.44
2019-05-13T04:09:58.770Z,6.44
2019-05-13T04:10:58.683Z,6.36
2019-05-13T04:11:58.611Z,6.25
2019-05-13T04:12:58.519Z,6.48
2019-05-13T04:13:58.428Z,6.43
2019-05-13T04:14:58.352Z,6.49
2019-05-13T04:15:58.265Z,6.49
2019-05-13T04:16:58.177Z,6.46
2019-05-13T04:17:58.106Z,6.38
2019-05-13T04:18:58.014Z,6.51
2019-05-13T04:19:57.930Z,6.49
2019-05-13T04:20:57.845Z,6.52
2019-05-13T04:21:57.769Z,6.58
2019-05-13T04:22:57.679Z,6.58
2019-05-13T04:23:57.591Z,6.69
2019-05-13T04:24:57.516Z,6.71
2019-05-13T04:25:57.428Z,6.77
2019-05-13T04:26:57.342Z,6.77
2019-05-13T04:27:57.266Z,7.02
2019-05-13T04:28:57.186Z,7.10
2019-05-13T04:29:57.094Z,7.40
2019-05-13T04:30:57.016Z,7.49
2019-05-13T04:31:56.930Z,7.55
2019-05-13T04:32:56.843Z,7.48
2019-05-13T04:33:56.756Z,7.48
2019-05-13T04:34:56.680Z,7.43
2019-05-13T04:35:56.593Z,7.53
2019-05-13T04:36:56.505Z,7.69
2019-05-13T04:37:56.433Z,8.01
2019-05-13T04:38:56.343Z,8.16
2019-05-13T04:39:56.691Z,8.48
2019-05-13T04:40:56.189Z,8.59
2019-05-13T04:41:56.093Z,8.58
2019-05-13T04:42:56.020Z,8.81
2019-05-13T04:43:55.953Z,8.89
2019-05-13T04:44:55.844Z,8.94
2019-05-13T04:45:55.756Z,8.87
2019-05-13T04:46:55.682Z,8.91
2019-05-13T04:47:55.593Z,8.96
2019-05-13T04:48:55.509Z,8.94
2019-05-13T04:49:55.436Z,8.92
2019-05-13T04:50:55.350Z,8.80
2019-05-13T04:51:55.257Z,8.74
2019-05-13T04:52:55.184Z,8.84
2019-05-13T04:53:57.307Z,8.83
2019-05-13T04:54:55.021Z,8.73
2019-05-13T04:55:54.937Z,8.70
2019-05-13T04:56:54.845Z,8.56
2019-05-13T04:57:54.758Z,8.55
2019-05-13T04:58:54.682Z,8.58
2019-05-13T04:59:55.249Z,8.58
2019-05-13T05:01:02.047Z,8.53
2019-05-13T05:01:59.088Z,8.53
2019-05-13T05:02:55.322Z,8.48
2019-05-13T05:03:54.258Z,8.55
2019-05-13T05:04:54.187Z,8.59
2019-05-13T05:05:54.095Z,8.59
2019-05-13T05:06:54.008Z,8.56
2019-05-13T05:07:53.934Z,8.58
2019-05-13T05:08:53.846Z,8.58
2019-05-13T05:10:16.750Z,8.58
2019-05-13T05:10:54.123Z,8.59
2019-05-13T05:11:53.608Z,8.66
2019-05-13T05:12:53.524Z,8.59
2019-05-13T05:13:56.559Z,8.58
2019-05-13T05:14:53.346Z,8.56
2019-05-13T05:15:53.271Z,8.52
2019-05-13T05:16:53.185Z,8.48
2019-05-13T05:17:53.097Z,8.52
2019-05-13T05:18:53.026Z,8.59
2019-05-13T05:19:52.935Z,8.70
2019-05-13T05:20:52.848Z,8.71
2019-05-13T05:21:55.243Z,8.63
2019-05-13T05:22:52.687Z,8.68
2019-05-13T05:23:52.610Z,8.86
2019-05-13T05:24:52.522Z,8.94
2019-05-13T05:25:52.435Z,8.94
2019-05-13T05:26:52.360Z,8.98
2019-05-13T05:27:52.273Z,9.01
2019-05-13T05:28:52.185Z,8.91
2019-05-13T05:29:52.112Z,9.01
2019-05-13T05:30:52.031Z,8.94
2019-05-13T05:31:52.015Z,8.96
2019-05-13T05:32:51.989Z,8.96
2019-05-13T05:33:51.775Z,9.04
2019-05-13T05:34:51.948Z,9.05
2019-05-13T05:35:52.071Z,9.20
2019-05-13T05:36:52.030Z,9.23
2019-05-13T05:37:52.209Z,9.29
2019-05-13T05:38:51.530Z,9.23
2019-05-13T05:39:51.314Z,9.29
2019-05-13T05:40:51.200Z,9.46
2019-05-13T05:41:51.411Z,9.28
2019-05-13T05:42:51.758Z,9.14
2019-05-13T05:43:52.182Z,9.15
2019-05-13T05:44:51.827Z,9.17
2019-05-13T05:45:51.258Z,9.29
2019-05-13T05:46:51.540Z,9.29
2019-05-13T05:47:51.097Z,9.23
2019-05-13T05:48:52.814Z,9.23
2019-05-13T05:49:51.593Z,9.20
2019-05-13T05:50:51.583Z,9.31
2019-05-13T05:51:51.482Z,9.40
2019-05-13T05:52:51.378Z,9.36
2019-05-13T05:53:51.650Z,9.43
2019-05-13T05:54:51.598Z,9.47
2019-05-13T05:55:51.765Z,9.47
2019-05-13T05:56:51.818Z,9.50
2019-05-13T05:57:52.122Z,9.48
2019-05-13T05:58:52.269Z,9.56
2019-05-13T05:59:51.085Z,9.65
2019-05-13T06:00:51.947Z,9.65
2019-05-13T06:01:52.344Z,9.65
2019-05-13T06:02:49.391Z,9.53
2019-05-13T06:03:49.301Z,9.71
2019-05-13T06:04:51.430Z,9.76
2019-05-13T06:05:51.137Z,9.83
2019-05-13T06:06:49.054Z,9.84
2019-05-13T06:07:51.324Z,9.90
2019-05-13T06:08:48.890Z,9.93
2019-05-13T06:09:48.814Z,9.99
2019-05-13T06:10:51.288Z,9.99
2019-05-13T06:11:48.639Z,10.05
2019-05-13T06:12:48.565Z,10.08
2019-05-13T06:13:51.329Z,10.08
2019-05-13T06:14:48.403Z,10.08
2019-05-13T06:15:48.322Z,10.12
2019-05-13T06:16:48.229Z,10.20
2019-05-13T06:17:48.153Z,10.30
2019-05-13T06:18:48.066Z,10.17
2019-05-13T06:19:47.995Z,10.30
2019-05-13T06:20:47.903Z,10.30
2019-05-13T06:21:47.828Z,10.27
2019-05-13T06:22:47.742Z,10.38
2019-05-13T06:23:47.654Z,10.42
2019-05-13T06:24:47.579Z,10.40
2019-05-13T06:25:47.498Z,10.51
2019-05-13T06:26:47.416Z,10.41
2019-05-13T06:27:47.329Z,10.55
2019-05-13T06:28:47.242Z,10.60
2019-05-13T06:29:49.169Z,10.56
2019-05-13T06:30:47.080Z,10.59
2019-05-13T06:31:47.004Z,10.63
2019-05-13T06:32:46.917Z,10.71
2019-05-13T06:33:46.843Z,10.73
2019-05-13T06:34:46.755Z,10.66
2019-05-13T06:35:46.668Z,10.74
2019-05-13T06:36:46.595Z,10.73
2019-05-13T06:37:46.505Z,10.84
2019-05-13T06:38:46.436Z,10.81
2019-05-13T06:39:46.345Z,10.78
2019-05-13T06:40:59.432Z,10.71
2019-05-13T06:41:46.181Z,10.84
2019-05-13T06:42:46.106Z,10.94
2019-05-13T06:43:46.020Z,10.88
2019-05-13T06:44:45.936Z,11.04
2019-05-13T06:45:45.856Z,11.11
2019-05-13T06:46:45.769Z,11.17
2019-05-13T06:47:45.694Z,10.97
2019-05-13T06:48:45.606Z,11.04
2019-05-13T06:49:45.531Z,11.14
2019-05-13T06:50:45.445Z,11.18
2019-05-13T06:51:45.380Z,11.21
2019-05-13T06:52:45.321Z,11.28
2019-05-13T06:53:45.207Z,11.22
2019-05-13T06:54:45.120Z,11.24
2019-05-13T06:55:45.032Z,11.43
2019-05-13T06:56:44.957Z,11.47
2019-05-13T06:57:44.871Z,11.55
2019-05-13T06:58:44.796Z,11.78
2019-05-13T06:59:44.721Z,11.90
2019-05-13T07:00:44.633Z,12.10
2019-05-13T07:01:44.553Z,12.29
2019-05-13T07:02:44.478Z,12.49
2019-05-13T07:03:44.393Z,12.47
2019-05-13T07:04:44.321Z,12.54
2019-05-13T07:05:44.224Z,12.39
2019-05-13T07:06:44.149Z,12.54
2019-05-13T07:07:44.059Z,12.38
2019-05-13T07:08:43.984Z,12.42
2019-05-13T07:09:43.897Z,12.31
2019-05-13T07:10:43.810Z,12.17
2019-05-13T07:11:43.787Z,12.21
2019-05-13T07:12:43.659Z,12.20
2019-05-13T07:13:43.575Z,12.10
2019-05-13T07:14:43.485Z,12.19
2019-05-13T07:15:43.413Z,12.34
2019-05-13T07:16:43.348Z,12.39
2019-05-13T07:17:43.249Z,12.65
2019-05-13T07:18:43.161Z,12.83
2019-05-13T07:19:43.085Z,13.14
2019-05-13T07:20:43.011Z,13.30
2019-05-13T07:21:42.924Z,13.55
2019-05-13T07:22:42.849Z,13.71
2019-05-13T07:23:42.761Z,13.82
2019-05-13T07:24:42.685Z,13.95
2019-05-13T07:25:42.601Z,14.02
2019-05-13T07:26:42.526Z,14.04
2019-05-13T07:27:42.586Z,14.25
2019-05-13T07:28:42.898Z,14.21
2019-05-13T07:29:42.467Z,14.17
2019-05-13T07:30:42.567Z,14.60
2019-05-13T07:31:42.279Z,14.81
2019-05-13T07:32:42.223Z,15.01
2019-05-13T07:33:42.630Z,15.29
2019-05-13T07:34:43.933Z,15.39
2019-05-13T07:35:44.368Z,15.59
2019-05-13T07:36:42.278Z,16.07
2019-05-13T07:37:42.367Z,16.56
2019-05-13T07:38:41.690Z,16.89
2019-05-13T07:39:41.989Z,17.26
2019-05-13T07:40:41.927Z,17.68
2019-05-13T07:41:42.961Z,18.00
2019-05-13T07:42:41.895Z,17.84
2019-05-13T07:43:42.616Z,17.90
2019-05-13T07:44:41.661Z,17.34
2019-05-13T07:45:42.357Z,17.95
2019-05-13T07:46:42.636Z,18.44
2019-05-13T07:47:41.684Z,18.51
2019-05-13T07:48:41.635Z,18.36
2019-05-13T07:49:41.993Z,18.02
2019-05-13T07:50:55.604Z,18.08
2019-05-13T07:51:42.073Z,18.58
2019-05-13T07:52:42.108Z,18.35
2019-05-13T07:53:42.408Z,18.51
2019-05-13T07:54:41.998Z,18.65
2019-05-13T07:55:42.136Z,18.63
2019-05-13T07:56:42.405Z,19.23
2019-05-13T07:57:42.211Z,19.62
2019-05-13T07:58:41.847Z,19.28
2019-05-13T07:59:41.757Z,19.56
2019-05-13T08:00:41.871Z,19.23
2019-05-13T08:01:41.731Z,19.08
2019-05-13T08:02:41.709Z,19.59
2019-05-13T08:03:41.998Z,19.99
2019-05-13T08:04:41.887Z,20.54
2019-05-13T08:05:41.670Z,20.69
2019-05-13T08:06:41.466Z,20.32
2019-05-13T08:07:39.341Z,19.55
2019-05-13T08:08:41.492Z,19.32
2019-05-13T08:09:41.692Z,19.07
2019-05-13T08:10:41.298Z,18.26
2019-05-13T08:11:58.196Z,18.90
2019-05-13T08:12:41.160Z,19.65
2019-05-13T08:13:38.891Z,19.95
2019-05-13T08:14:43.270Z,20.10
2019-05-13T08:15:38.756Z,20.13
2019-05-13T08:16:38.667Z,20.28
2019-05-13T08:17:44.606Z,19.95
2019-05-13T08:18:38.517Z,19.65
2019-05-13T08:19:38.442Z,19.80
2019-05-13T08:20:38.367Z,18.80
2019-05-13T08:21:38.305Z,18.25
2019-05-13T08:22:38.217Z,18.87
2019-05-13T08:23:38.155Z,19.02
2019-05-13T08:24:38.080Z,19.56
2019-05-13T08:25:38.007Z,19.43
2019-05-13T08:26:43.253Z,19.56
2019-05-13T08:27:37.856Z,20.02
2019-05-13T08:28:52.676Z,20.10
2019-05-13T08:29:37.706Z,20.61
2019-05-13T08:30:37.631Z,21.22
2019-05-13T08:31:37.556Z,20.99
2019-05-13T08:32:37.481Z,21.03
2019-05-13T08:33:37.419Z,20.10
2019-05-13T08:34:37.343Z,20.35
2019-05-13T08:35:37.268Z,19.92
2019-05-13T08:36:39.594Z,19.22
2019-05-13T08:37:37.121Z,18.66
2019-05-13T08:38:37.053Z,18.48
2019-05-13T08:39:38.537Z,18.48
2019-05-13T08:40:36.907Z,17.92
2019-05-13T08:41:36.833Z,17.95
2019-05-13T08:42:36.758Z,18.60
2019-05-13T08:43:36.682Z,18.81
2019-05-13T08:44:36.610Z,19.40
2019-05-13T08:45:36.547Z,20.08
2019-05-13T08:46:36.470Z,20.61
2019-05-13T08:47:36.395Z,21.31
2019-05-13T08:48:36.320Z,21.53
2019-05-13T08:49:36.246Z,22.12
2019-05-13T08:50:36.171Z,21.88
2019-05-13T08:51:36.102Z,21.54
2019-05-13T08:52:36.041Z,21.22
2019-05-13T08:53:35.964Z,20.28
2019-05-13T08:54:35.883Z,19.55
2019-05-13T08:55:35.809Z,18.80
2019-05-13T08:56:35.747Z,18.47
2019-05-13T08:57:35.671Z,17.55
2019-05-13T08:58:35.596Z,17.37
2019-05-13T08:59:35.524Z,17.26
2019-05-13T09:00:35.460Z,17.66
2019-05-13T09:01:35.389Z,17.95
2019-05-13T09:02:35.311Z,18.63
2019-05-13T09:03:35.235Z,18.72
2019-05-13T09:04:35.160Z,19.26
2019-05-13T09:05:35.086Z,19.96
2019-05-13T09:06:35.011Z,20.39
2019-05-13T09:07:34.937Z,20.47
2019-05-13T09:08:34.873Z,19.77
2019-05-13T09:09:34.799Z,19.63
2019-05-13T09:10:34.723Z,19.99
2019-05-13T09:11:34.647Z,20.16
2019-05-13T09:12:37.091Z,20.17
2019-05-13T09:13:34.497Z,20.23
2019-05-13T09:14:34.423Z,20.72
2019-05-13T09:15:34.356Z,20.85
2019-05-13T09:16:34.301Z,21.28
2019-05-13T09:17:34.212Z,20.73
2019-05-13T09:18:34.146Z,19.74
2019-05-13T09:19:34.062Z,19.48
2019-05-13T09:20:33.993Z,19.80
2019-05-13T09:21:33.925Z,19.51
2019-05-13T09:22:33.863Z,19.04
2019-05-13T09:23:33.775Z,18.98
2019-05-13T09:24:37.623Z,18.87
2019-05-13T09:25:33.626Z,18.58
2019-05-13T09:26:33.563Z,18.69
2019-05-13T09:27:33.488Z,19.10
2019-05-13T09:28:33.414Z,19.84
2019-05-13T09:29:33.340Z,20.23
2019-05-13T09:30:33.267Z,19.88
2019-05-13T09:31:33.199Z,19.98
2019-05-13T09:32:33.126Z,19.81
2019-05-13T09:33:33.051Z,19.10
2019-05-13T09:34:33.143Z,18.10
2019-05-13T09:35:32.904Z,17.31
2019-05-13T09:36:32.826Z,16.98
2019-05-13T09:37:32.778Z,16.88
2019-05-13T09:38:32.879Z,17.54
2019-05-13T09:39:32.685Z,17.96
2019-05-13T09:40:32.539Z,18.07
2019-05-13T09:41:38.434Z,17.87
2019-05-13T09:42:47.089Z,16.78
2019-05-13T09:43:32.316Z,16.61
2019-05-13T09:44:32.873Z,16.66
2019-05-13T09:45:32.287Z,16.85
2019-05-13T09:46:32.094Z,16.86
2019-05-13T09:47:32.279Z,16.75
2019-05-13T09:48:32.170Z,17.06
2019-05-13T09:49:32.834Z,17.41
2019-05-13T09:50:35.343Z,17.96
2019-05-13T09:51:32.350Z,18.25
2019-05-13T09:52:32.009Z,18.18
2019-05-13T09:53:32.543Z,18.36
2019-05-13T09:54:32.757Z,18.44
2019-05-13T09:55:32.537Z,18.92
2019-05-13T09:56:31.895Z,18.87
2019-05-13T09:57:32.122Z,18.98
2019-05-13T09:58:33.046Z,19.02
2019-05-13T09:59:31.815Z,18.91
2019-05-13T10:00:32.315Z,18.87
2019-05-13T10:01:31.995Z,18.36
2019-05-13T10:02:32.045Z,17.90
2019-05-13T10:03:33.092Z,17.92
2019-05-13T10:04:31.825Z,18.10
2019-05-13T10:05:31.670Z,17.38
2019-05-13T10:06:32.736Z,17.33
2019-05-13T10:07:31.822Z,17.18
2019-05-13T10:08:32.619Z,17.11
2019-05-13T10:09:32.585Z,17.03
2019-05-13T10:10:31.903Z,16.76
2019-05-13T10:11:30.205Z,16.64
2019-05-13T10:12:31.945Z,16.35
2019-05-13T10:13:31.737Z,16.31
2019-05-13T10:14:32.347Z,16.21
2019-05-13T10:15:32.335Z,16.11
2019-05-13T10:16:31.402Z,15.92
2019-05-13T10:17:31.754Z,16.01
2019-05-13T10:18:32.276Z,16.07
2019-05-13T10:19:31.588Z,16.12
2019-05-13T10:20:31.723Z,16.42
2019-05-13T10:21:29.431Z,16.67
2019-05-13T10:22:31.779Z,16.73
2019-05-13T10:23:29.282Z,16.70
2019-05-13T10:24:29.194Z,16.88
2019-05-13T10:25:29.121Z,16.76
2019-05-13T10:26:31.405Z,16.61
2019-05-13T10:27:28.972Z,16.53
2019-05-13T10:28:28.883Z,16.46
2019-05-13T10:29:31.086Z,16.21
2019-05-13T10:30:28.745Z,16.02
2019-05-13T10:31:28.657Z,15.96
2019-05-13T10:32:28.581Z,15.87
2019-05-13T10:33:28.496Z,15.69
2019-05-13T10:34:28.420Z,15.62
2019-05-13T10:35:28.349Z,15.14
2019-05-13T10:36:28.270Z,15.20
2019-05-13T10:37:28.184Z,15.17
2019-05-13T10:38:28.188Z,15.74
2019-05-13T10:39:28.032Z,16.71
2019-05-13T10:40:27.958Z,17.54
2019-05-13T10:41:27.871Z,18.20
2019-05-13T10:42:27.796Z,18.47
2019-05-13T10:43:31.734Z,18.57
2019-05-13T10:44:27.651Z,18.23
2019-05-13T10:45:27.560Z,18.52
2019-05-13T10:46:27.484Z,18.17
2019-05-13T10:47:27.424Z,17.97
2019-05-13T10:48:27.333Z,17.58
2019-05-13T10:49:27.260Z,17.07
2019-05-13T10:50:27.665Z,17.30
2019-05-13T10:51:27.097Z,18.18
2019-05-13T10:52:27.022Z,18.55
2019-05-13T10:53:26.948Z,19.54
2019-05-13T10:54:26.872Z,19.22
2019-05-13T10:55:26.801Z,18.27
2019-05-13T10:56:26.724Z,18.29
2019-05-13T10:57:26.653Z,18.26
2019-05-13T10:58:26.573Z,19.32
2019-05-13T10:59:26.499Z,18.94
2019-05-13T11:00:26.429Z,18.72
2019-05-13T11:01:26.349Z,18.57
2019-05-13T11:02:26.274Z,18.05
2019-05-13T11:03:26.200Z,17.59
2019-05-13T11:04:26.153Z,16.89
2019-05-13T11:05:26.052Z,16.45
2019-05-13T11:06:25.974Z,16.08
2019-05-13T11:07:25.899Z,15.94
2019-05-13T11:08:25.824Z,15.78
2019-05-13T11:09:25.751Z,15.82
2019-05-13T11:10:25.677Z,16.68
2019-05-13T11:11:25.599Z,17.90
2019-05-13T11:12:28.504Z,19.02
2019-05-13T11:13:25.452Z,20.17
2019-05-13T11:14:25.378Z,20.87
2019-05-13T11:15:25.316Z,21.28
2019-05-13T11:16:25.224Z,21.07
2019-05-13T11:17:30.947Z,21.29
2019-05-13T11:18:25.078Z,22.10
2019-05-13T11:19:25.000Z,22.25
2019-05-13T11:20:24.926Z,21.17
2019-05-13T11:21:24.851Z,21.94
2019-05-13T11:22:24.804Z,22.05
2019-05-13T11:23:24.700Z,21.31
2019-05-13T11:24:24.639Z,20.73
2019-05-13T11:25:24.563Z,20.64
2019-05-13T11:26:24.488Z,21.29
2019-05-13T11:27:24.412Z,21.86
2019-05-13T11:28:24.351Z,22.64
2019-05-13T11:29:24.277Z,22.39
2019-05-13T11:30:24.201Z,21.58
2019-05-13T11:31:24.138Z,20.62
2019-05-13T11:32:24.063Z,19.88
2019-05-13T11:33:23.989Z,19.29
2019-05-13T11:34:23.915Z,18.52
2019-05-13T11:35:23.852Z,17.89
2019-05-13T11:36:23.864Z,17.68
2019-05-13T11:37:23.702Z,17.66
2019-05-13T11:38:23.639Z,18.02
2019-05-13T11:39:23.564Z,17.95
2019-05-13T11:40:23.489Z,17.68
2019-05-13T11:41:23.427Z,18.62
2019-05-13T11:42:23.339Z,19.41
2019-05-13T11:43:27.880Z,19.86
2019-05-13T11:44:23.191Z,20.51
2019-05-13T11:45:23.128Z,20.11
2019-05-13T11:46:23.054Z,20.36
2019-05-13T11:47:22.982Z,20.94
2019-05-13T11:48:23.569Z,21.43
2019-05-13T11:49:22.828Z,21.06
2019-05-13T11:50:22.754Z,19.91
2019-05-13T11:51:24.135Z,19.98
2019-05-13T11:52:22.828Z,20.26
2019-05-13T11:53:37.796Z,21.16
2019-05-13T11:54:22.558Z,21.88
2019-05-13T11:55:23.036Z,22.07
2019-05-13T11:56:22.964Z,22.12
2019-05-13T11:57:22.256Z,22.22
2019-05-13T11:58:22.191Z,21.22
2019-05-13T11:59:22.246Z,21.28
2019-05-13T12:00:22.054Z,21.49
2019-05-13T12:01:22.951Z,22.25
2019-05-13T12:02:23.160Z,22.06
2019-05-13T12:04:23.992Z,21.77
2019-05-13T12:05:22.598Z,20.69
2019-05-13T12:06:23.323Z,20.76
2019-05-13T12:07:23.243Z,21.28
2019-05-13T12:08:22.686Z,21.49
2019-05-13T12:09:22.242Z,21.58
2019-05-13T12:10:22.791Z,21.25
2019-05-13T12:11:22.408Z,21.52
2019-05-13T12:12:22.604Z,22.05
2019-05-13T12:13:23.292Z,21.49
2019-05-13T12:14:43.636Z,21.19
2019-05-13T12:15:30.722Z,20.84
2019-05-13T12:16:22.730Z,21.74
2019-05-13T12:17:22.505Z,22.47
2019-05-13T12:18:23.557Z,22.67
2019-05-13T12:19:21.861Z,23.00
2019-05-13T12:20:20.657Z,23.00
2019-05-13T12:21:20.582Z,22.24
2019-05-13T12:22:22.989Z,22.07
2019-05-13T12:23:20.445Z,22.65
2019-05-13T12:24:22.678Z,22.86
2019-05-13T12:25:22.424Z,22.54
2019-05-13T12:26:23.414Z,21.38
2019-05-13T12:27:20.171Z,20.51
2019-05-13T12:28:20.108Z,20.43
2019-05-13T12:29:20.033Z,21.91
2019-05-13T12:30:22.571Z,22.39
2019-05-13T12:31:22.037Z,22.60
2019-05-13T12:32:22.158Z,21.49
2019-05-13T12:33:22.367Z,21.17
2019-05-13T12:34:22.124Z,20.36
2019-05-13T12:35:22.166Z,19.77
2019-05-13T12:36:22.743Z,18.90
2019-05-13T12:37:21.933Z,18.25
2019-05-13T12:38:19.410Z,18.75
2019-05-13T12:39:19.335Z,20.05
2019-05-13T12:40:22.849Z,21.01
2019-05-13T12:41:19.252Z,21.72
2019-05-13T12:42:22.449Z,22.57
2019-05-13T12:43:19.047Z,23.01
2019-05-13T12:44:22.276Z,23.36
2019-05-13T12:45:19.733Z,23.12
2019-05-13T12:46:18.835Z,22.68
2019-05-13T12:47:18.771Z,21.28
2019-05-13T12:48:18.728Z,20.61
2019-05-13T12:49:18.626Z,19.55
2019-05-13T12:50:18.561Z,19.16
2019-05-13T12:51:18.486Z,19.41
2019-05-13T12:52:18.410Z,19.08
2019-05-13T12:53:18.349Z,20.32
2019-05-13T12:54:18.275Z,21.52
2019-05-13T12:55:18.198Z,21.42
2019-05-13T12:56:18.124Z,22.35
2019-05-13T12:57:18.061Z,22.68
2019-05-13T12:58:18.000Z,23.23
2019-05-13T12:59:17.911Z,23.25
2019-05-13T13:00:17.896Z,22.65
2019-05-13T13:01:17.773Z,21.32
2019-05-13T13:02:17.714Z,19.66
2019-05-13T13:03:17.637Z,18.81
2019-05-13T13:04:17.562Z,18.14